sensor_id;sensor_type;location;lat;lon;timestamp;P1;P2;P0
45871;PMS5003;32333;55.844;-3.210;2023-04-25T00:01:51;6;6;
45871;PMS5003;32333;55.844;-3.210;2023-04-25T00:04:18;0;0;
45871;PMS5003;32333;55.844;-3.210;2023-04-25T00:06:46;0;0;
45871;PMS5003;32333;55.844;-3.210;2023-04-25T00:09:14;0;0;
45871;PMS5003;32333;55.844;-3.210;2023-04-25T00:11:42;0;0;
45871;PMS5003;32333;55.844;-3.210;2023-04-25T00:14:35;0;0;
45871;PMS5003;32333;55.844;-3.210;2023-04-25T00:17:03;0;0;
45871;PMS5003;32333;55.844;-3.210;2023-04-25T00:19:31;0;0;
45871;PMS5003;32333;55.844;-3.210;2023-04-25T00:21:59;0;0;
45871;PMS5003;32333;55.844;-3.210;2023-04-25T00:24:27;0;0;
45871;PMS5003;32333;55.844;-3.210;2023-04-25T00:26:55;0;0;
45871;PMS5003;32333;55.844;-3.210;2023-04-25T00:29:22;0;0;
45871;PMS5003;32333;55.844;-3.210;2023-04-25T00:31:50;0;0;
45871;PMS5003;32333;55.844;-3.210;2023-04-25T00:34:17;0;0;
45871;PMS5003;32333;55.844;-3.210;2023-04-25T00:36:45;0;0;
45871;PMS5003;32333;55.844;-3.210;2023-04-25T00:39:14;0;0;
45871;PMS5003;32333;55.844;-3.210;2023-04-25T00:41:42;0;0;
45871;PMS5003;32333;55.844;-3.210;2023-04-25T00:44:36;0;0;
45871;PMS5003;32333;55.844;-3.210;2023-04-25T00:47:04;0;0;
45871;PMS5003;32333;55.844;-3.210;2023-04-25T00:49:33;0;0;
45871;PMS5003;32333;55.844;-3.210;2023-04-25T00:52:00;0;0;
45871;PMS5003;32333;55.844;-3.210;2023-04-25T00:54:29;0;0;
45871;PMS5003;32333;55.844;-3.210;2023-04-25T00:56:56;3;3;
45871;PMS5003;32333;55.844;-3.210;2023-04-25T00:59:25;0;0;
45871;PMS5003;32333;55.844;-3.210;2023-04-25T01:01:53;0;0;
45871;PMS5003;32333;55.844;-3.210;2023-04-25T01:04:21;0;0;
45871;PMS5003;32333;55.844;-3.210;2023-04-25T01:08:47;0;0;
45871;PMS5003;32333;55.844;-3.210;2023-04-25T01:11:15;0;0;
45871;PMS5003;32333;55.844;-3.210;2023-04-25T01:14:35;0;0;
45871;PMS5003;32333;55.844;-3.210;2023-04-25T01:17:03;0;0;
45871;PMS5003;32333;55.844;-3.210;2023-04-25T01:19:31;0;0;
45871;PMS5003;32333;55.844;-3.210;2023-04-25T01:21:59;0;0;
45871;PMS5003;32333;55.844;-3.210;2023-04-25T01:24:27;0;0;
45871;PMS5003;32333;55.844;-3.210;2023-04-25T01:26:55;0;0;
45871;PMS5003;32333;55.844;-3.210;2023-04-25T01:29:23;0;0;
45871;PMS5003;32333;55.844;-3.210;2023-04-25T01:31:50;0;0;
45871;PMS5003;32333;55.844;-3.210;2023-04-25T01:34:18;0;0;
45871;PMS5003;32333;55.844;-3.210;2023-04-25T01:36:47;0;0;
45871;PMS5003;32333;55.844;-3.210;2023-04-25T01:39:17;0;0;
45871;PMS5003;32333;55.844;-3.210;2023-04-25T01:41:46;0;0;
45871;PMS5003;32333;55.844;-3.210;2023-04-25T01:44:36;0;0;
45871;PMS5003;32333;55.844;-3.210;2023-04-25T01:47:03;0;0;
45871;PMS5003;32333;55.844;-3.210;2023-04-25T01:49:31;0;0;
45871;PMS5003;32333;55.844;-3.210;2023-04-25T01:52:00;0;0;
45871;PMS5003;32333;55.844;-3.210;2023-04-25T01:54:27;0;0;
45871;PMS5003;32333;55.844;-3.210;2023-04-25T01:56:57;0;0;
45871;PMS5003;32333;55.844;-3.210;2023-04-25T01:59:25;0;0;
45871;PMS5003;32333;55.844;-3.210;2023-04-25T02:01:53;0;0;
45871;PMS5003;32333;55.844;-3.210;2023-04-25T02:04:22;0;0;
45871;PMS5003;32333;55.844;-3.210;2023-04-25T02:06:50;0;0;
45871;PMS5003;32333;55.844;-3.210;2023-04-25T02:09:18;0;0;
45871;PMS5003;32333;55.844;-3.210;2023-04-25T02:11:46;0;0;
45871;PMS5003;32333;55.844;-3.210;2023-04-25T02:14:35;0;0;
45871;PMS5003;32333;55.844;-3.210;2023-04-25T02:17:03;0;0;
45871;PMS5003;32333;55.844;-3.210;2023-04-25T02:19:31;0;0;
45871;PMS5003;32333;55.844;-3.210;2023-04-25T02:21:59;0;0;
45871;PMS5003;32333;55.844;-3.210;2023-04-25T02:24:28;0;0;
45871;PMS5003;32333;55.844;-3.210;2023-04-25T02:26:56;0;0;
45871;PMS5003;32333;55.844;-3.210;2023-04-25T02:29:24;0;0;
45871;PMS5003;32333;55.844;-3.210;2023-04-25T02:31:52;0;0;
45871;PMS5003;32333;55.844;-3.210;2023-04-25T02:34:20;0;0;
45871;PMS5003;32333;55.844;-3.210;2023-04-25T02:36:47;0;0;
45871;PMS5003;32333;55.844;-3.210;2023-04-25T02:39:15;0;0;
45871;PMS5003;32333;55.844;-3.210;2023-04-25T02:41:43;0;0;
45871;PMS5003;32333;55.844;-3.210;2023-04-25T02:44:35;0;0;
45871;PMS5003;32333;55.844;-3.210;2023-04-25T02:47:03;0;0;
45871;PMS5003;32333;55.844;-3.210;2023-04-25T02:49:31;0;0;
45871;PMS5003;32333;55.844;-3.210;2023-04-25T02:51:59;0;0;
45871;PMS5003;32333;55.844;-3.210;2023-04-25T02:54:27;1;0;
45871;PMS5003;32333;55.844;-3.210;2023-04-25T02:56:55;0;0;
45871;PMS5003;32333;55.844;-3.210;2023-04-25T02:59:22;0;0;
45871;PMS5003;32333;55.844;-3.210;2023-04-25T03:01:50;0;0;
45871;PMS5003;32333;55.844;-3.210;2023-04-25T03:04:20;0;0;
45871;PMS5003;32333;55.844;-3.210;2023-04-25T03:06:51;0;0;
45871;PMS5003;32333;55.844;-3.210;2023-04-25T03:09:19;0;0;
45871;PMS5003;32333;55.844;-3.210;2023-04-25T03:11:46;0;0;
45871;PMS5003;32333;55.844;-3.210;2023-04-25T03:14:35;0;0;
45871;PMS5003;32333;55.844;-3.210;2023-04-25T03:17:03;3;1;
45871;PMS5003;32333;55.844;-3.210;2023-04-25T03:19:30;0;0;
45871;PMS5003;32333;55.844;-3.210;2023-04-25T03:21:59;0;0;
45871;PMS5003;32333;55.844;-3.210;2023-04-25T03:24:27;0;0;
45871;PMS5003;32333;55.844;-3.210;2023-04-25T03:26:55;0;0;
45871;PMS5003;32333;55.844;-3.210;2023-04-25T03:29:22;0;0;
45871;PMS5003;32333;55.844;-3.210;2023-04-25T03:31:50;0;0;
45871;PMS5003;32333;55.844;-3.210;2023-04-25T03:34:18;0;0;
45871;PMS5003;32333;55.844;-3.210;2023-04-25T03:36:45;0;0;
45871;PMS5003;32333;55.844;-3.210;2023-04-25T03:39:15;0;0;
45871;PMS5003;32333;55.844;-3.210;2023-04-25T03:41:43;0;0;
45871;PMS5003;32333;55.844;-3.210;2023-04-25T03:44:35;0;0;
45871;PMS5003;32333;55.844;-3.210;2023-04-25T03:47:03;0;0;
45871;PMS5003;32333;55.844;-3.210;2023-04-25T03:49:32;0;0;
45871;PMS5003;32333;55.844;-3.210;2023-04-25T03:52:00;0;0;
45871;PMS5003;32333;55.844;-3.210;2023-04-25T03:54:28;0;0;
45871;PMS5003;32333;55.844;-3.210;2023-04-25T03:56:56;0;0;
45871;PMS5003;32333;55.844;-3.210;2023-04-25T03:59:24;1;1;
45871;PMS5003;32333;55.844;-3.210;2023-04-25T04:01:52;0;0;
45871;PMS5003;32333;55.844;-3.210;2023-04-25T04:04:20;0;0;
45871;PMS5003;32333;55.844;-3.210;2023-04-25T04:06:47;0;0;
45871;PMS5003;32333;55.844;-3.210;2023-04-25T04:09:15;0;0;
45871;PMS5003;32333;55.844;-3.210;2023-04-25T04:11:43;0;0;
45871;PMS5003;32333;55.844;-3.210;2023-04-25T04:14:35;0;0;
45871;PMS5003;32333;55.844;-3.210;2023-04-25T04:17:03;0;0;
45871;PMS5003;32333;55.844;-3.210;2023-04-25T04:19:31;0;0;
45871;PMS5003;32333;55.844;-3.210;2023-04-25T04:21:59;0;0;
45871;PMS5003;32333;55.844;-3.210;2023-04-25T04:24:27;0;0;
45871;PMS5003;32333;55.844;-3.210;2023-04-25T04:26:55;0;0;
45871;PMS5003;32333;55.844;-3.210;2023-04-25T04:29:22;0;0;
45871;PMS5003;32333;55.844;-3.210;2023-04-25T04:31:51;0;0;
45871;PMS5003;32333;55.844;-3.210;2023-04-25T04:34:18;0;0;
45871;PMS5003;32333;55.844;-3.210;2023-04-25T04:36:46;0;0;
45871;PMS5003;32333;55.844;-3.210;2023-04-25T04:39:15;0;0;
45871;PMS5003;32333;55.844;-3.210;2023-04-25T04:41:42;0;0;
45871;PMS5003;32333;55.844;-3.210;2023-04-25T04:44:35;0;0;
45871;PMS5003;32333;55.844;-3.210;2023-04-25T04:47:03;0;0;
45871;PMS5003;32333;55.844;-3.210;2023-04-25T04:49:30;0;0;
45871;PMS5003;32333;55.844;-3.210;2023-04-25T04:51:58;0;0;
45871;PMS5003;32333;55.844;-3.210;2023-04-25T04:54:26;0;0;
45871;PMS5003;32333;55.844;-3.210;2023-04-25T04:56:54;0;0;
45871;PMS5003;32333;55.844;-3.210;2023-04-25T04:59:22;0;0;
45871;PMS5003;32333;55.844;-3.210;2023-04-25T05:01:50;0;0;
45871;PMS5003;32333;55.844;-3.210;2023-04-25T05:04:19;0;0;
45871;PMS5003;32333;55.844;-3.210;2023-04-25T05:06:46;0;0;
45871;PMS5003;32333;55.844;-3.210;2023-04-25T05:09:15;0;0;
45871;PMS5003;32333;55.844;-3.210;2023-04-25T05:11:43;0;0;
45871;PMS5003;32333;55.844;-3.210;2023-04-25T05:14:35;0;0;
45871;PMS5003;32333;55.844;-3.210;2023-04-25T05:17:03;0;0;
45871;PMS5003;32333;55.844;-3.210;2023-04-25T05:19:31;0;0;
45871;PMS5003;32333;55.844;-3.210;2023-04-25T05:22:00;0;0;
45871;PMS5003;32333;55.844;-3.210;2023-04-25T05:24:27;0;0;
45871;PMS5003;32333;55.844;-3.210;2023-04-25T05:26:56;0;0;
45871;PMS5003;32333;55.844;-3.210;2023-04-25T05:29:24;0;0;
45871;PMS5003;32333;55.844;-3.210;2023-04-25T05:31:52;0;0;
45871;PMS5003;32333;55.844;-3.210;2023-04-25T05:34:20;0;0;
45871;PMS5003;32333;55.844;-3.210;2023-04-25T05:36:49;0;0;
45871;PMS5003;32333;55.844;-3.210;2023-04-25T05:39:17;0;0;
45871;PMS5003;32333;55.844;-3.210;2023-04-25T05:41:45;0;0;
45871;PMS5003;32333;55.844;-3.210;2023-04-25T05:44:35;0;0;
45871;PMS5003;32333;55.844;-3.210;2023-04-25T05:47:03;0;0;
45871;PMS5003;32333;55.844;-3.210;2023-04-25T05:49:32;0;0;
45871;PMS5003;32333;55.844;-3.210;2023-04-25T05:52:00;0;0;
45871;PMS5003;32333;55.844;-3.210;2023-04-25T05:54:27;0;0;
45871;PMS5003;32333;55.844;-3.210;2023-04-25T05:56:56;0;0;
45871;PMS5003;32333;55.844;-3.210;2023-04-25T05:59:25;0;0;
45871;PMS5003;32333;55.844;-3.210;2023-04-25T06:01:52;0;0;
45871;PMS5003;32333;55.844;-3.210;2023-04-25T06:04:20;0;0;
45871;PMS5003;32333;55.844;-3.210;2023-04-25T06:06:48;0;0;
45871;PMS5003;32333;55.844;-3.210;2023-04-25T06:09:16;0;0;
45871;PMS5003;32333;55.844;-3.210;2023-04-25T06:11:45;0;0;
45871;PMS5003;32333;55.844;-3.210;2023-04-25T06:14:36;43;43;
45871;PMS5003;32333;55.844;-3.210;2023-04-25T06:17:04;84;84;
45871;PMS5003;32333;55.844;-3.210;2023-04-25T06:19:37;70;70;
45871;PMS5003;32333;55.844;-3.210;2023-04-25T06:22:05;70;70;
45871;PMS5003;32333;55.844;-3.210;2023-04-25T06:24:34;57;57;
45871;PMS5003;32333;55.844;-3.210;2023-04-25T06:27:03;33;33;
45871;PMS5003;32333;55.844;-3.210;2023-04-25T06:29:32;18;18;
45871;PMS5003;32333;55.844;-3.210;2023-04-25T06:32:01;10;10;
45871;PMS5003;32333;55.844;-3.210;2023-04-25T06:34:29;6;6;
45871;PMS5003;32333;55.844;-3.210;2023-04-25T06:36:57;0;0;
45871;PMS5003;32333;55.844;-3.210;2023-04-25T06:39:26;0;0;
45871;PMS5003;32333;55.844;-3.210;2023-04-25T06:41:55;0;0;
45871;PMS5003;32333;55.844;-3.210;2023-04-25T06:44:35;0;0;
45871;PMS5003;32333;55.844;-3.210;2023-04-25T06:47:39;0;0;
45871;PMS5003;32333;55.844;-3.210;2023-04-25T06:50:10;0;0;
45871;PMS5003;32333;55.844;-3.210;2023-04-25T06:52:38;0;0;
45871;PMS5003;32333;55.844;-3.210;2023-04-25T06:55:06;0;0;
45871;PMS5003;32333;55.844;-3.210;2023-04-25T06:57:35;0;0;
45871;PMS5003;32333;55.844;-3.210;2023-04-25T07:00:04;0;0;
45871;PMS5003;32333;55.844;-3.210;2023-04-25T07:02:33;0;0;
45871;PMS5003;32333;55.844;-3.210;2023-04-25T07:05:01;0;0;
45871;PMS5003;32333;55.844;-3.210;2023-04-25T07:07:29;0;0;
45871;PMS5003;32333;55.844;-3.210;2023-04-25T07:09:56;0;0;
45871;PMS5003;32333;55.844;-3.210;2023-04-25T07:14:35;0;0;
45871;PMS5003;32333;55.844;-3.210;2023-04-25T07:17:03;0;0;
45871;PMS5003;32333;55.844;-3.210;2023-04-25T07:19:30;0;0;
45871;PMS5003;32333;55.844;-3.210;2023-04-25T07:21:59;0;0;
45871;PMS5003;32333;55.844;-3.210;2023-04-25T07:24:27;0;0;
45871;PMS5003;32333;55.844;-3.210;2023-04-25T07:26:54;0;0;
45871;PMS5003;32333;55.844;-3.210;2023-04-25T07:29:21;0;0;
45871;PMS5003;32333;55.844;-3.210;2023-04-25T07:31:49;0;0;
45871;PMS5003;32333;55.844;-3.210;2023-04-25T07:34:17;1;1;
45871;PMS5003;32333;55.844;-3.210;2023-04-25T07:36:45;0;0;
45871;PMS5003;32333;55.844;-3.210;2023-04-25T07:39:13;0;0;
45871;PMS5003;32333;55.844;-3.210;2023-04-25T07:41:41;0;0;
45871;PMS5003;32333;55.844;-3.210;2023-04-25T07:44:35;0;0;
45871;PMS5003;32333;55.844;-3.210;2023-04-25T07:47:04;0;0;
45871;PMS5003;32333;55.844;-3.210;2023-04-25T07:49:32;0;0;
45871;PMS5003;32333;55.844;-3.210;2023-04-25T07:52:01;0;0;
45871;PMS5003;32333;55.844;-3.210;2023-04-25T07:54:30;54;54;
45871;PMS5003;32333;55.844;-3.210;2023-04-25T07:56:58;12;12;
45871;PMS5003;32333;55.844;-3.210;2023-04-25T07:59:26;0;0;
45871;PMS5003;32333;55.844;-3.210;2023-04-25T08:01:53;0;0;
45871;PMS5003;32333;55.844;-3.210;2023-04-25T08:04:20;0;0;
45871;PMS5003;32333;55.844;-3.210;2023-04-25T08:06:49;0;0;
45871;PMS5003;32333;55.844;-3.210;2023-04-25T08:09:16;0;0;
45871;PMS5003;32333;55.844;-3.210;2023-04-25T08:11:44;0;0;
45871;PMS5003;32333;55.844;-3.210;2023-04-25T08:14:35;0;0;
45871;PMS5003;32333;55.844;-3.210;2023-04-25T08:17:03;0;0;
45871;PMS5003;32333;55.844;-3.210;2023-04-25T08:19:31;0;0;
45871;PMS5003;32333;55.844;-3.210;2023-04-25T08:21:59;0;0;
45871;PMS5003;32333;55.844;-3.210;2023-04-25T08:24:26;0;0;
45871;PMS5003;32333;55.844;-3.210;2023-04-25T08:26:54;0;0;
45871;PMS5003;32333;55.844;-3.210;2023-04-25T08:29:22;0;0;
45871;PMS5003;32333;55.844;-3.210;2023-04-25T08:31:50;1;1;
45871;PMS5003;32333;55.844;-3.210;2023-04-25T08:34:17;0;0;
45871;PMS5003;32333;55.844;-3.210;2023-04-25T08:36:45;0;0;
45871;PMS5003;32333;55.844;-3.210;2023-04-25T08:39:12;0;0;
45871;PMS5003;32333;55.844;-3.210;2023-04-25T08:41:40;0;0;
45871;PMS5003;32333;55.844;-3.210;2023-04-25T08:44:35;0;0;
45871;PMS5003;32333;55.844;-3.210;2023-04-25T08:47:04;0;0;
45871;PMS5003;32333;55.844;-3.210;2023-04-25T08:49:32;0;0;
45871;PMS5003;32333;55.844;-3.210;2023-04-25T08:52:00;0;0;
45871;PMS5003;32333;55.844;-3.210;2023-04-25T08:54:29;0;0;
45871;PMS5003;32333;55.844;-3.210;2023-04-25T08:56:59;0;0;
45871;PMS5003;32333;55.844;-3.210;2023-04-25T08:59:28;0;0;
45871;PMS5003;32333;55.844;-3.210;2023-04-25T09:01:57;0;0;
45871;PMS5003;32333;55.844;-3.210;2023-04-25T09:04:24;0;0;
45871;PMS5003;32333;55.844;-3.210;2023-04-25T09:06:52;0;0;
45871;PMS5003;32333;55.844;-3.210;2023-04-25T09:09:21;3;3;
45871;PMS5003;32333;55.844;-3.210;2023-04-25T09:11:48;0;0;
45871;PMS5003;32333;55.844;-3.210;2023-04-25T09:14:35;0;0;
45871;PMS5003;32333;55.844;-3.210;2023-04-25T09:17:03;0;0;
45871;PMS5003;32333;55.844;-3.210;2023-04-25T09:19:32;0;0;
45871;PMS5003;32333;55.844;-3.210;2023-04-25T09:22:00;0;0;
45871;PMS5003;32333;55.844;-3.210;2023-04-25T09:24:30;0;0;
45871;PMS5003;32333;55.844;-3.210;2023-04-25T09:26:59;0;0;
45871;PMS5003;32333;55.844;-3.210;2023-04-25T09:29:29;0;0;
45871;PMS5003;32333;55.844;-3.210;2023-04-25T09:32:15;0;0;
45871;PMS5003;32333;55.844;-3.210;2023-04-25T09:34:46;0;0;
45871;PMS5003;32333;55.844;-3.210;2023-04-25T09:37:17;0;0;
45871;PMS5003;32333;55.844;-3.210;2023-04-25T09:39:46;1;1;
45871;PMS5003;32333;55.844;-3.210;2023-04-25T09:44:35;0;0;
45871;PMS5003;32333;55.844;-3.210;2023-04-25T09:47:02;0;0;
45871;PMS5003;32333;55.844;-3.210;2023-04-25T09:49:30;0;0;
45871;PMS5003;32333;55.844;-3.210;2023-04-25T09:51:58;0;0;
45871;PMS5003;32333;55.844;-3.210;2023-04-25T09:54:26;0;0;
45871;PMS5003;32333;55.844;-3.210;2023-04-25T09:56:53;0;0;
45871;PMS5003;32333;55.844;-3.210;2023-04-25T09:59:22;0;0;
45871;PMS5003;32333;55.844;-3.210;2023-04-25T10:01:51;0;0;
45871;PMS5003;32333;55.844;-3.210;2023-04-25T10:04:22;0;0;
45871;PMS5003;32333;55.844;-3.210;2023-04-25T10:06:53;0;0;
45871;PMS5003;32333;55.844;-3.210;2023-04-25T10:09:23;0;0;
45871;PMS5003;32333;55.844;-3.210;2023-04-25T10:11:54;0;0;
45871;PMS5003;32333;55.844;-3.210;2023-04-25T10:14:35;0;0;
45871;PMS5003;32333;55.844;-3.210;2023-04-25T10:17:02;0;0;
45871;PMS5003;32333;55.844;-3.210;2023-04-25T10:19:29;0;0;
45871;PMS5003;32333;55.844;-3.210;2023-04-25T10:22:03;0;0;
45871;PMS5003;32333;55.844;-3.210;2023-04-25T10:24:34;0;0;
45871;PMS5003;32333;55.844;-3.210;2023-04-25T10:27:03;0;0;
45871;PMS5003;32333;55.844;-3.210;2023-04-25T10:29:32;1;1;
45871;PMS5003;32333;55.844;-3.210;2023-04-25T10:31:59;0;0;
45871;PMS5003;32333;55.844;-3.210;2023-04-25T10:34:37;0;0;
45871;PMS5003;32333;55.844;-3.210;2023-04-25T10:37:08;0;0;
45871;PMS5003;32333;55.844;-3.210;2023-04-25T10:39:36;0;0;
45871;PMS5003;32333;55.844;-3.210;2023-04-25T10:44:37;0;0;
45871;PMS5003;32333;55.844;-3.210;2023-04-25T10:47:06;0;0;
45871;PMS5003;32333;55.844;-3.210;2023-04-25T10:49:34;0;0;
45871;PMS5003;32333;55.844;-3.210;2023-04-25T10:52:11;0;0;
45871;PMS5003;32333;55.844;-3.210;2023-04-25T10:54:40;0;0;
45871;PMS5003;32333;55.844;-3.210;2023-04-25T10:57:25;0;0;
45871;PMS5003;32333;55.844;-3.210;2023-04-25T10:59:54;0;0;
45871;PMS5003;32333;55.844;-3.210;2023-04-25T11:02:26;0;0;
45871;PMS5003;32333;55.844;-3.210;2023-04-25T11:04:54;0;0;
45871;PMS5003;32333;55.844;-3.210;2023-04-25T11:07:23;0;0;
45871;PMS5003;32333;55.844;-3.210;2023-04-25T11:10:01;0;0;
45871;PMS5003;32333;55.844;-3.210;2023-04-25T11:14:34;0;0;
45871;PMS5003;32333;55.844;-3.210;2023-04-25T11:17:02;0;0;
45871;PMS5003;32333;55.844;-3.210;2023-04-25T11:19:30;0;0;
45871;PMS5003;32333;55.844;-3.210;2023-04-25T11:21:58;0;0;
45871;PMS5003;32333;55.844;-3.210;2023-04-25T11:24:27;0;0;
45871;PMS5003;32333;55.844;-3.210;2023-04-25T11:26:54;0;0;
45871;PMS5003;32333;55.844;-3.210;2023-04-25T11:29:22;1;1;
45871;PMS5003;32333;55.844;-3.210;2023-04-25T11:31:49;0;0;
45871;PMS5003;32333;55.844;-3.210;2023-04-25T11:34:19;0;0;
45871;PMS5003;32333;55.844;-3.210;2023-04-25T11:36:46;0;0;
45871;PMS5003;32333;55.844;-3.210;2023-04-25T11:39:14;0;0;
45871;PMS5003;32333;55.844;-3.210;2023-04-25T11:41:42;0;0;
45871;PMS5003;32333;55.844;-3.210;2023-04-25T11:44:35;0;0;
45871;PMS5003;32333;55.844;-3.210;2023-04-25T11:47:04;0;0;
45871;PMS5003;32333;55.844;-3.210;2023-04-25T11:49:31;0;0;
45871;PMS5003;32333;55.844;-3.210;2023-04-25T11:52:00;0;0;
45871;PMS5003;32333;55.844;-3.210;2023-04-25T11:54:29;0;0;
45871;PMS5003;32333;55.844;-3.210;2023-04-25T11:56:57;0;0;
45871;PMS5003;32333;55.844;-3.210;2023-04-25T11:59:25;0;0;
45871;PMS5003;32333;55.844;-3.210;2023-04-25T12:01:52;0;0;
45871;PMS5003;32333;55.844;-3.210;2023-04-25T12:04:21;0;0;
45871;PMS5003;32333;55.844;-3.210;2023-04-25T12:06:50;0;0;
45871;PMS5003;32333;55.844;-3.210;2023-04-25T12:09:20;0;0;
45871;PMS5003;32333;55.844;-3.210;2023-04-25T12:11:58;0;0;
45871;PMS5003;32333;55.844;-3.210;2023-04-25T12:14:45;0;0;
45871;PMS5003;32333;55.844;-3.210;2023-04-25T12:17:13;0;0;
45871;PMS5003;32333;55.844;-3.210;2023-04-25T12:19:40;0;0;
45871;PMS5003;32333;55.844;-3.210;2023-04-25T12:22:19;0;0;
45871;PMS5003;32333;55.844;-3.210;2023-04-25T12:24:47;0;0;
45871;PMS5003;32333;55.844;-3.210;2023-04-25T12:27:21;0;0;
45871;PMS5003;32333;55.844;-3.210;2023-04-25T12:29:53;0;0;
45871;PMS5003;32333;55.844;-3.210;2023-04-25T12:32:21;0;0;
45871;PMS5003;32333;55.844;-3.210;2023-04-25T12:34:52;0;0;
45871;PMS5003;32333;55.844;-3.210;2023-04-25T12:37:24;0;0;
45871;PMS5003;32333;55.844;-3.210;2023-04-25T12:39:55;0;0;
45871;PMS5003;32333;55.844;-3.210;2023-04-25T12:44:35;0;0;
45871;PMS5003;32333;55.844;-3.210;2023-04-25T12:47:03;0;0;
45871;PMS5003;32333;55.844;-3.210;2023-04-25T12:49:31;0;0;
45871;PMS5003;32333;55.844;-3.210;2023-04-25T12:51:58;0;0;
45871;PMS5003;32333;55.844;-3.210;2023-04-25T12:54:26;0;0;
45871;PMS5003;32333;55.844;-3.210;2023-04-25T12:56:53;0;0;
45871;PMS5003;32333;55.844;-3.210;2023-04-25T12:59:21;0;0;
45871;PMS5003;32333;55.844;-3.210;2023-04-25T13:01:50;0;0;
45871;PMS5003;32333;55.844;-3.210;2023-04-25T13:04:18;0;0;
45871;PMS5003;32333;55.844;-3.210;2023-04-25T13:06:46;0;0;
45871;PMS5003;32333;55.844;-3.210;2023-04-25T13:09:13;0;0;
45871;PMS5003;32333;55.844;-3.210;2023-04-25T13:11:40;0;0;
45871;PMS5003;32333;55.844;-3.210;2023-04-25T13:14:35;0;0;
45871;PMS5003;32333;55.844;-3.210;2023-04-25T13:17:02;0;0;
45871;PMS5003;32333;55.844;-3.210;2023-04-25T13:19:31;0;0;
45871;PMS5003;32333;55.844;-3.210;2023-04-25T13:21:58;0;0;
45871;PMS5003;32333;55.844;-3.210;2023-04-25T13:24:26;0;0;
45871;PMS5003;32333;55.844;-3.210;2023-04-25T13:26:53;0;0;
45871;PMS5003;32333;55.844;-3.210;2023-04-25T13:29:21;0;0;
45871;PMS5003;32333;55.844;-3.210;2023-04-25T13:31:48;0;0;
45871;PMS5003;32333;55.844;-3.210;2023-04-25T13:34:16;0;0;
45871;PMS5003;32333;55.844;-3.210;2023-04-25T13:36:43;0;0;
45871;PMS5003;32333;55.844;-3.210;2023-04-25T13:39:10;0;0;
45871;PMS5003;32333;55.844;-3.210;2023-04-25T13:41:38;0;0;
45871;PMS5003;32333;55.844;-3.210;2023-04-25T13:44:35;0;0;
45871;PMS5003;32333;55.844;-3.210;2023-04-25T13:47:03;0;0;
45871;PMS5003;32333;55.844;-3.210;2023-04-25T13:49:30;0;0;
45871;PMS5003;32333;55.844;-3.210;2023-04-25T13:51:58;0;0;
45871;PMS5003;32333;55.844;-3.210;2023-04-25T13:54:25;0;0;
45871;PMS5003;32333;55.844;-3.210;2023-04-25T13:56:53;0;0;
45871;PMS5003;32333;55.844;-3.210;2023-04-25T13:59:20;0;0;
45871;PMS5003;32333;55.844;-3.210;2023-04-25T14:01:47;0;0;
45871;PMS5003;32333;55.844;-3.210;2023-04-25T14:04:15;0;0;
45871;PMS5003;32333;55.844;-3.210;2023-04-25T14:06:42;0;0;
45871;PMS5003;32333;55.844;-3.210;2023-04-25T14:09:11;0;0;
45871;PMS5003;32333;55.844;-3.210;2023-04-25T14:11:38;0;0;
45871;PMS5003;32333;55.844;-3.210;2023-04-25T14:14:35;0;0;
45871;PMS5003;32333;55.844;-3.210;2023-04-25T14:17:04;0;0;
45871;PMS5003;32333;55.844;-3.210;2023-04-25T14:19:31;0;0;
45871;PMS5003;32333;55.844;-3.210;2023-04-25T14:21:59;1;0;
45871;PMS5003;32333;55.844;-3.210;2023-04-25T14:24:26;0;0;
45871;PMS5003;32333;55.844;-3.210;2023-04-25T14:26:55;0;0;
45871;PMS5003;32333;55.844;-3.210;2023-04-25T14:29:22;0;0;
45871;PMS5003;32333;55.844;-3.210;2023-04-25T14:31:49;0;0;
45871;PMS5003;32333;55.844;-3.210;2023-04-25T14:34:16;0;0;
45871;PMS5003;32333;55.844;-3.210;2023-04-25T14:36:44;0;0;
45871;PMS5003;32333;55.844;-3.210;2023-04-25T14:39:12;0;0;
45871;PMS5003;32333;55.844;-3.210;2023-04-25T14:41:41;0;0;
45871;PMS5003;32333;55.844;-3.210;2023-04-25T14:44:35;0;0;
45871;PMS5003;32333;55.844;-3.210;2023-04-25T14:47:03;0;0;
45871;PMS5003;32333;55.844;-3.210;2023-04-25T14:49:31;0;0;
45871;PMS5003;32333;55.844;-3.210;2023-04-25T14:51:59;0;0;
45871;PMS5003;32333;55.844;-3.210;2023-04-25T14:54:26;0;0;
45871;PMS5003;32333;55.844;-3.210;2023-04-25T14:56:53;0;0;
45871;PMS5003;32333;55.844;-3.210;2023-04-25T14:59:22;0;0;
45871;PMS5003;32333;55.844;-3.210;2023-04-25T15:01:50;0;0;
45871;PMS5003;32333;55.844;-3.210;2023-04-25T15:04:18;0;0;
45871;PMS5003;32333;55.844;-3.210;2023-04-25T15:06:46;0;0;
45871;PMS5003;32333;55.844;-3.210;2023-04-25T15:09:13;0;0;
45871;PMS5003;32333;55.844;-3.210;2023-04-25T15:11:41;0;0;
45871;PMS5003;32333;55.844;-3.210;2023-04-25T15:14:35;0;0;
45871;PMS5003;32333;55.844;-3.210;2023-04-25T15:17:02;0;0;
45871;PMS5003;32333;55.844;-3.210;2023-04-25T15:19:29;0;0;
45871;PMS5003;32333;55.844;-3.210;2023-04-25T15:21:58;0;0;
45871;PMS5003;32333;55.844;-3.210;2023-04-25T15:24:25;0;0;
45871;PMS5003;32333;55.844;-3.210;2023-04-25T15:26:52;0;0;
45871;PMS5003;32333;55.844;-3.210;2023-04-25T15:29:20;0;0;
45871;PMS5003;32333;55.844;-3.210;2023-04-25T15:31:47;0;0;
45871;PMS5003;32333;55.844;-3.210;2023-04-25T15:34:14;0;0;
45871;PMS5003;32333;55.844;-3.210;2023-04-25T15:36:42;0;0;
45871;PMS5003;32333;55.844;-3.210;2023-04-25T15:39:10;0;0;
45871;PMS5003;32333;55.844;-3.210;2023-04-25T15:41:37;0;0;
45871;PMS5003;32333;55.844;-3.210;2023-04-25T15:44:35;0;0;
45871;PMS5003;32333;55.844;-3.210;2023-04-25T15:47:02;0;0;
45871;PMS5003;32333;55.844;-3.210;2023-04-25T15:49:30;0;0;
45871;PMS5003;32333;55.844;-3.210;2023-04-25T15:51:58;0;0;
45871;PMS5003;32333;55.844;-3.210;2023-04-25T15:54:25;0;0;
45871;PMS5003;32333;55.844;-3.210;2023-04-25T15:56:53;0;0;
45871;PMS5003;32333;55.844;-3.210;2023-04-25T15:59:20;0;0;
45871;PMS5003;32333;55.844;-3.210;2023-04-25T16:01:47;0;0;
45871;PMS5003;32333;55.844;-3.210;2023-04-25T16:04:15;0;0;
45871;PMS5003;32333;55.844;-3.210;2023-04-25T16:06:42;0;0;
45871;PMS5003;32333;55.844;-3.210;2023-04-25T16:09:10;0;0;
45871;PMS5003;32333;55.844;-3.210;2023-04-25T16:11:38;0;0;
45871;PMS5003;32333;55.844;-3.210;2023-04-25T16:14:34;0;0;
45871;PMS5003;32333;55.844;-3.210;2023-04-25T16:17:03;0;0;
45871;PMS5003;32333;55.844;-3.210;2023-04-25T16:19:30;0;0;
45871;PMS5003;32333;55.844;-3.210;2023-04-25T16:21:58;0;0;
45871;PMS5003;32333;55.844;-3.210;2023-04-25T16:24:25;0;0;
45871;PMS5003;32333;55.844;-3.210;2023-04-25T16:26:54;0;0;
45871;PMS5003;32333;55.844;-3.210;2023-04-25T16:29:23;0;0;
45871;PMS5003;32333;55.844;-3.210;2023-04-25T16:31:50;0;0;
45871;PMS5003;32333;55.844;-3.210;2023-04-25T16:34:17;0;0;
45871;PMS5003;32333;55.844;-3.210;2023-04-25T16:36:46;0;0;
45871;PMS5003;32333;55.844;-3.210;2023-04-25T16:39:13;0;0;
45871;PMS5003;32333;55.844;-3.210;2023-04-25T16:41:40;0;0;
45871;PMS5003;32333;55.844;-3.210;2023-04-25T16:44:34;0;0;
45871;PMS5003;32333;55.844;-3.210;2023-04-25T16:47:02;0;0;
45871;PMS5003;32333;55.844;-3.210;2023-04-25T16:49:29;0;0;
45871;PMS5003;32333;55.844;-3.210;2023-04-25T16:51:58;1;0;
45871;PMS5003;32333;55.844;-3.210;2023-04-25T16:54:25;0;0;
45871;PMS5003;32333;55.844;-3.210;2023-04-25T16:56:53;0;0;
45871;PMS5003;32333;55.844;-3.210;2023-04-25T16:59:21;0;0;
45871;PMS5003;32333;55.844;-3.210;2023-04-25T17:01:49;0;0;
45871;PMS5003;32333;55.844;-3.210;2023-04-25T17:04:16;0;0;
45871;PMS5003;32333;55.844;-3.210;2023-04-25T17:06:43;0;0;